Time;durP1;ratioP1;P1;durP2;ratioP2;P2;SDS_P1;SDS_P2;PMS_P1;PMS_P2;Temp;Humidity;BMP_temperature;BMP_pressure;BME280_temperature;BME280_humidity;BME280_pressure;Samples;Min_cycle;Max_cycle;Signal;HPM_P1;HPM_P2
2021/12/29 00:01:54;;;;;;;5.73;5.27;;;11.40;99.90;;;;;;5057166;28;20499;-44
2021/12/29 00:04:20;;;;;;;6.40;5.90;;;11.40;99.90;;;;;;5072237;28;20185;-44
2021/12/29 00:06:46;;;;;;;6.60;6.00;;;11.50;99.90;;;;;;5069504;28;20177;-42
2021/12/29 00:09:12;;;;;;;5.90;5.50;;;11.40;99.90;;;;;;5069941;28;20549;-47
2021/12/29 00:11:40;;;;;;;7.23;6.70;;;11.40;99.90;;;;;;5069697;28;20189;-42
2021/12/29 00:14:07;;;;;;;7.17;6.57;;;11.40;99.90;;;;;;5069170;28;20193;-47
2021/12/29 00:16:35;;;;;;;8.00;7.33;;;11.00;99.90;;;;;;5065549;28;21014;-43
2021/12/29 00:19:09;;;;;;;8.00;7.30;;;11.20;99.90;;;;;;5062183;28;20434;-42
2021/12/29 00:21:37;;;;;;;7.50;6.90;;;11.20;99.90;;;;;;5069156;28;20458;-42
2021/12/29 00:24:05;;;;;;;8.40;7.60;;;11.10;99.90;;;;;;5069024;28;20445;-44
2021/12/29 00:26:32;;;;;;;8.07;7.37;;;11.00;99.90;;;;;;5069301;28;20929;-46
2021/12/29 00:28:59;;;;;;;8.20;7.53;;;10.90;99.90;;;;;;5069868;28;20415;-42
2021/12/29 00:31:32;;;;;;;8.97;8.17;;;10.90;99.90;;;;;;5066995;28;20514;-47
2021/12/29 00:33:58;;;;;;;9.23;8.13;;;10.90;99.90;;;;;;5064232;28;20411;-45
2021/12/29 00:36:25;;;;;;;9.17;8.37;;;10.90;99.90;;;;;;5068029;28;20427;-42
2021/12/29 00:38:50;;;;;;;8.97;8.27;;;11.10;99.90;;;;;;5067700;28;20854;-42
2021/12/29 00:41:17;;;;;;;8.87;8.17;;;10.90;99.90;;;;;;5069142;28;20528;-44
2021/12/29 00:43:44;;;;;;;8.23;7.63;;;10.90;99.90;;;;;;5068174;28;20586;-42
2021/12/29 00:46:12;;;;;;;9.13;8.33;;;10.80;99.90;;;;;;5069320;28;20569;-44
2021/12/29 00:48:41;;;;;;;9.90;9.03;;;10.90;99.90;;;;;;5059175;28;20841;-44
2021/12/29 00:51:08;;;;;;;9.10;8.20;;;10.90;99.90;;;;;;5066987;28;20921;-41
2021/12/29 00:53:34;;;;;;;9.23;8.23;;;10.90;99.90;;;;;;5068424;28;20980;-42
2021/12/29 00:56:00;;;;;;;9.23;8.33;;;10.80;99.90;;;;;;5069003;28;20423;-42
2021/12/29 00:58:25;;;;;;;9.60;8.57;;;10.90;99.90;;;;;;5067248;28;20537;-44
2021/12/29 01:00:52;;;;;;;10.03;9.13;;;10.70;99.90;;;;;;5069025;28;20566;-43
2021/12/29 01:03:18;;;;;;;8.57;7.80;;;10.70;99.90;;;;;;5056840;28;20204;-43
2021/12/29 01:05:44;;;;;;;8.90;8.10;;;10.70;99.90;;;;;;5066544;28;20446;-41
2021/12/29 01:08:10;;;;;;;8.83;8.03;;;10.70;99.90;;;;;;5062253;28;20941;-42
2021/12/29 01:10:38;;;;;;;9.33;8.53;;;10.80;99.90;;;;;;5068458;28;20189;-44
2021/12/29 01:13:06;;;;;;;9.60;8.57;;;10.70;99.90;;;;;;5067741;28;20432;-46
2021/12/29 01:15:56;;;;;;;9.77;8.87;;;10.60;99.90;;;;;;5068592;28;20433;-42
2021/12/29 01:18:23;;;;;;;9.97;8.97;;;10.60;99.90;;;;;;5058633;28;20504;-42
2021/12/29 01:20:49;;;;;;;9.50;8.50;;;10.50;99.90;;;;;;5067436;28;21025;-44
2021/12/29 01:23:16;;;;;;;8.77;7.83;;;10.60;99.90;;;;;;5065367;28;20412;-44
2021/12/29 01:25:41;;;;;;;8.37;7.67;;;10.50;99.90;;;;;;5068295;28;20762;-43
2021/12/29 01:28:07;;;;;;;7.73;6.73;;;10.60;99.90;;;;;;5068398;28;20413;-44
2021/12/29 01:30:33;;;;;;;8.43;7.20;;;10.40;99.90;;;;;;5068065;28;20272;-46
2021/12/29 01:33:05;;;;;;;6.60;6.00;;;10.40;99.90;;;;;;5060344;28;20189;-42
2021/12/29 01:35:31;;;;;;;8.70;7.47;;;10.40;99.90;;;;;;5068249;28;20181;-44
2021/12/29 01:37:57;;;;;;;7.57;6.87;;;10.50;99.90;;;;;;5066264;28;20523;-42
2021/12/29 01:40:23;;;;;;;8.97;7.27;;;10.40;99.90;;;;;;5067662;28;20868;-43
2021/12/29 01:42:49;;;;;;;7.93;6.80;;;10.30;99.90;;;;;;5067311;28;20219;-42
2021/12/29 01:45:14;;;;;;;8.00;6.70;;;10.60;99.90;;;;;;5067731;28;20169;-43
2021/12/29 01:47:41;;;;;;;6.53;5.93;;;10.50;99.90;;;;;;5062965;28;20671;-42
2021/12/29 01:50:09;;;;;;;6.93;5.90;;;10.40;99.90;;;;;;5065961;28;20182;-47
2021/12/29 01:52:38;;;;;;;6.70;5.93;;;10.30;99.90;;;;;;5067695;28;20875;-44
2021/12/29 01:55:08;;;;;;;7.33;6.50;;;10.30;99.90;;;;;;5067426;28;20431;-44
2021/12/29 01:57:34;;;;;;;6.87;6.17;;;10.20;99.90;;;;;;5067529;28;20443;-43
2021/12/29 02:00:00;;;;;;;6.87;6.27;;;10.30;99.90;;;;;;5067721;28;20430;-43
2021/12/29 02:02:26;;;;;;;7.27;6.57;;;10.40;99.90;;;;;;5062078;28;20520;-44
2021/12/29 02:04:52;;;;;;;7.07;6.30;;;10.30;99.90;;;;;;5059334;28;20419;-42
2021/12/29 02:07:17;;;;;;;7.47;6.37;;;10.30;99.90;;;;;;5067027;28;20863;-43
2021/12/29 02:09:43;;;;;;;8.00;7.30;;;10.30;99.90;;;;;;5067551;28;20275;-44
2021/12/29 02:12:10;;;;;;;7.67;6.97;;;10.20;99.90;;;;;;5067362;28;20257;-42
2021/12/29 02:14:35;;;;;;;7.37;6.67;;;10.20;99.90;;;;;;5066950;28;20423;-42
2021/12/29 02:17:02;;;;;;;8.20;7.10;;;10.20;99.90;;;;;;5067184;28;20805;-42
2021/12/29 02:19:28;;;;;;;9.00;7.23;;;10.20;99.90;;;;;;5052667;28;20199;-47
2021/12/29 02:22:03;;;;;;;7.00;6.40;;;10.20;99.90;;;;;;5067433;28;20459;-44
2021/12/29 02:24:41;;;;;;;8.00;7.30;;;10.20;99.90;;;;;;5066934;28;20646;-43
2021/12/29 02:27:10;;;;;;;8.13;7.33;;;10.40;99.90;;;;;;5067446;28;20891;-44
2021/12/29 02:29:37;;;;;;;7.67;6.87;;;10.30;99.90;;;;;;5067236;28;20853;-47
2021/12/29 02:32:03;;;;;;;8.57;7.67;;;10.10;99.90;;;;;;5066497;28;20568;-42
2021/12/29 02:34:29;;;;;;;7.77;6.97;;;10.20;99.90;;;;;;5054426;28;20971;-43
2021/12/29 02:36:57;;;;;;;10.20;8.20;;;10.20;99.90;;;;;;5067616;28;20821;-44
2021/12/29 02:39:24;;;;;;;8.53;7.73;;;10.00;99.90;;;;;;5065578;28;20937;-45
2021/12/29 02:41:53;;;;;;;8.40;7.60;;;10.10;99.90;;;;;;5067207;28;20495;-47
2021/12/29 02:44:28;;;;;;;9.10;8.27;;;10.10;99.90;;;;;;5066349;28;20549;-42
2021/12/29 02:46:56;;;;;;;8.70;7.83;;;10.20;99.90;;;;;;5067502;28;20423;-42
2021/12/29 02:49:23;;;;;;;8.90;8.10;;;10.40;99.90;;;;;;5057595;28;20467;-44
2021/12/29 02:51:49;;;;;;;9.20;8.30;;;10.20;99.90;;;;;;5062612;28;20419;-44
2021/12/29 02:54:16;;;;;;;10.30;9.30;;;10.20;99.90;;;;;;5066212;28;20438;-43
2021/12/29 02:56:43;;;;;;;10.90;8.70;;;10.20;99.90;;;;;;5067011;28;20874;-42
2021/12/29 02:59:09;;;;;;;9.23;8.40;;;10.20;99.90;;;;;;5066955;28;20427;-44
2021/12/29 03:01:34;;;;;;;9.93;8.97;;;10.20;99.90;;;;;;5067204;28;21006;-43
2021/12/29 03:04:04;;;;;;;9.47;8.53;;;10.20;99.90;;;;;;5056309;28;20193;-42
2021/12/29 03:06:30;;;;;;;10.60;9.50;;;10.20;99.90;;;;;;5065768;28;20271;-43
2021/12/29 03:08:55;;;;;;;8.97;8.07;;;10.20;99.90;;;;;;5066845;28;20589;-45
2021/12/29 03:11:21;;;;;;;9.03;8.10;;;10.20;99.90;;;;;;5067008;28;20583;-43
2021/12/29 03:13:47;;;;;;;8.70;7.80;;;10.10;99.90;;;;;;5065849;28;20275;-43
2021/12/29 03:16:13;;;;;;;8.77;7.90;;;10.40;99.90;;;;;;5066859;28;20189;-42
2021/12/29 03:18:39;;;;;;;8.20;7.40;;;10.10;99.90;;;;;;5056779;28;20204;-45
2021/12/29 03:21:05;;;;;;;7.97;7.20;;;10.10;99.90;;;;;;5064003;28;20459;-45
2021/12/29 03:23:31;;;;;;;7.47;6.70;;;10.10;99.90;;;;;;5066308;28;20201;-44
2021/12/29 03:25:57;;;;;;;7.63;6.43;;;10.10;99.90;;;;;;5066587;28;20430;-42
2021/12/29 03:28:24;;;;;;;10.03;7.27;;;10.20;99.90;;;;;;5066720;28;20434;-43
2021/12/29 03:30:53;;;;;;;7.80;7.00;;;10.10;99.90;;;;;;5066674;28;20419;-47
2021/12/29 03:33:21;;;;;;;7.13;6.43;;;10.10;99.90;;;;;;5058526;28;20439;-42
2021/12/29 03:35:57;;;;;;;7.53;6.73;;;10.00;99.90;;;;;;5061927;28;20926;-45
2021/12/29 03:38:25;;;;;;;8.00;7.20;;;10.00;99.90;;;;;;5058837;28;20509;-45
2021/12/29 03:40:52;;;;;;;7.37;6.67;;;10.10;99.90;;;;;;5066099;28;20474;-43
2021/12/29 03:43:18;;;;;;;7.10;6.40;;;10.00;99.90;;;;;;5068031;28;20423;-42
2021/12/29 03:45:46;;;;;;;8.27;6.97;;;10.10;99.90;;;;;;5068939;28;21071;-42
2021/12/29 03:48:13;;;;;;;7.23;6.63;;;10.00;99.90;;;;;;5067010;28;20967;-43
2021/12/29 03:50:39;;;;;;;7.20;6.50;;;10.00;99.90;;;;;;5065992;28;20423;-44
2021/12/29 03:53:09;;;;;;;7.37;6.70;;;10.00;99.90;;;;;;5069229;28;20430;-43
2021/12/29 03:55:35;;;;;;;9.37;6.43;;;10.00;99.90;;;;;;5069991;28;20434;-44
2021/12/29 03:58:01;;;;;;;7.90;7.10;;;10.20;99.90;;;;;;5069653;28;20450;-43
2021/12/29 04:00:27;;;;;;;9.03;7.90;;;10.00;99.90;;;;;;5069900;28;20415;-42
2021/12/29 04:02:53;;;;;;;12.03;7.37;;;10.00;99.90;;;;;;5067423;28;20467;-43
2021/12/29 04:05:22;;;;;;;9.03;7.57;;;10.00;99.90;;;;;;5065600;28;20418;-43
2021/12/29 04:07:48;;;;;;;8.87;7.97;;;10.00;99.90;;;;;;5069627;28;20426;-42
2021/12/29 04:10:15;;;;;;;8.43;7.50;;;10.00;99.90;;;;;;5069722;28;20516;-42
2021/12/29 04:12:41;;;;;;;7.47;6.77;;;10.10;99.90;;;;;;5069291;28;20435;-42
2021/12/29 04:15:09;;;;;;;8.00;7.00;;;10.00;99.90;;;;;;5069657;28;20790;-42
2021/12/29 04:17:37;;;;;;;7.67;6.90;;;10.10;99.90;;;;;;5069805;28;20430;-47
2021/12/29 04:22:53;;;;;;;10.37;7.37;;;10.00;99.90;;;;;;5067321;28;20599;-42
2021/12/29 04:25:24;;;;;;;8.37;7.50;;;9.90;99.90;;;;;;5069659;28;20470;-43
2021/12/29 04:27:53;;;;;;;9.33;8.40;;;9.90;99.90;;;;;;5069643;28;20236;-44
2021/12/29 04:30:20;;;;;;;10.40;8.27;;;10.20;99.90;;;;;;5069826;28;20782;-42
2021/12/29 04:32:46;;;;;;;10.90;8.77;;;9.90;99.90;;;;;;5068840;28;20628;-42
2021/12/29 04:35:12;;;;;;;10.17;8.00;;;10.00;99.90;;;;;;5059773;28;20537;-43
2021/12/29 04:37:38;;;;;;;8.07;6.90;;;9.90;99.90;;;;;;5069030;28;20200;-46
2021/12/29 04:40:06;;;;;;;9.93;8.00;;;9.80;99.90;;;;;;5067586;28;20438;-43
2021/12/29 04:42:32;;;;;;;9.40;7.43;;;9.90;99.90;;;;;;5069013;28;20293;-44
2021/12/29 04:44:57;;;;;;;9.00;7.17;;;9.90;99.90;;;;;;5068509;28;20428;-42
2021/12/29 04:47:28;;;;;;;7.70;6.30;;;9.80;99.90;;;;;;5068963;28;20192;-45
2021/12/29 04:49:55;;;;;;;9.40;6.63;;;10.00;99.90;;;;;;5056687;28;20198;-42
2021/12/29 04:52:20;;;;;;;7.53;6.47;;;9.80;99.90;;;;;;5068627;28;20516;-45
2021/12/29 04:54:46;;;;;;;8.40;6.30;;;9.90;99.90;;;;;;5067252;28;20961;-43
2021/12/29 04:57:12;;;;;;;7.17;6.47;;;9.80;99.90;;;;;;5068750;28;20287;-46
2021/12/29 04:59:38;;;;;;;6.43;5.73;;;10.00;99.90;;;;;;5068789;28;20447;-42
2021/12/29 05:02:04;;;;;;;9.47;6.10;;;10.00;99.90;;;;;;5068607;28;20459;-42
2021/12/29 05:04:34;;;;;;;5.80;5.00;;;9.80;99.90;;;;;;5058445;28;20598;-46
2021/12/29 05:09:46;;;;;;;5.70;3.87;;;9.90;99.90;;;;;;5082626;28;20794;-44
2021/12/29 05:12:12;;;;;;;4.77;3.47;;;9.80;99.90;;;;;;5084528;28;20435;-42
2021/12/29 05:14:38;;;;;;;3.63;3.33;;;9.80;99.90;;;;;;5082031;28;20192;-46
2021/12/29 05:17:05;;;;;;;4.50;3.20;;;9.80;99.90;;;;;;5087306;28;20453;-45
2021/12/29 05:19:32;;;;;;;4.73;4.07;;;9.80;99.90;;;;;;5061502;28;20438;-47
2021/12/29 05:21:57;;;;;;;4.60;4.10;;;9.80;99.90;;;;;;5067927;28;20989;-42
2021/12/29 05:24:23;;;;;;;7.37;5.60;;;9.80;99.90;;;;;;5067537;28;20489;-43
2021/12/29 05:26:49;;;;;;;6.57;4.60;;;9.70;99.90;;;;;;5066639;28;20663;-43
2021/12/29 05:29:14;;;;;;;7.23;5.40;;;9.70;99.90;;;;;;5067939;28;20253;-46
2021/12/29 05:31:40;;;;;;;7.63;6.10;;;9.70;99.90;;;;;;5068338;28;20674;-43
2021/12/29 05:34:06;;;;;;;7.97;5.87;;;9.90;99.90;;;;;;5062339;28;20702;-43
2021/12/29 05:36:32;;;;;;;8.50;5.77;;;9.90;99.90;;;;;;5063920;28;20762;-43
2021/12/29 05:38:57;;;;;;;7.80;6.30;;;9.70;99.90;;;;;;5066666;28;20197;-45
2021/12/29 05:41:23;;;;;;;8.13;6.60;;;9.70;99.90;;;;;;5067856;28;20221;-48
2021/12/29 05:43:49;;;;;;;11.50;7.20;;;9.80;99.90;;;;;;5067123;28;20193;-43
2021/12/29 05:46:16;;;;;;;9.70;6.63;;;9.80;99.90;;;;;;5068006;28;20431;-43
2021/12/29 05:48:42;;;;;;;11.10;6.57;;;9.70;99.90;;;;;;5065741;28;20439;-43
2021/12/29 05:51:07;;;;;;;9.40;7.63;;;9.80;99.90;;;;;;5055129;28;20442;-44
2021/12/29 05:53:33;;;;;;;9.40;7.70;;;9.70;99.90;;;;;;5059446;28;20446;-44
2021/12/29 05:55:59;;;;;;;12.13;7.77;;;9.70;99.90;;;;;;5076832;28;20200;-44
2021/12/29 05:58:25;;;;;;;9.80;7.43;;;9.90;99.90;;;;;;5067098;28;20477;-42
2021/12/29 06:00:51;;;;;;;12.03;8.63;;;9.90;99.90;;;;;;5066361;28;20189;-44
2021/12/29 06:03:18;;;;;;;9.83;8.27;;;9.80;99.90;;;;;;5067144;28;20220;-46
2021/12/29 06:05:43;;;;;;;11.03;8.13;;;9.80;99.90;;;;;;5058902;28;20900;-44
2021/12/29 06:08:09;;;;;;;8.50;7.60;;;9.80;99.90;;;;;;5067267;28;20423;-42
2021/12/29 06:10:35;;;;;;;7.83;7.03;;;9.80;99.90;;;;;;5067615;28;20200;-42
2021/12/29 06:13:01;;;;;;;9.47;7.73;;;9.80;99.90;;;;;;5066613;28;20266;-43
2021/12/29 06:15:26;;;;;;;9.77;7.83;;;10.00;99.90;;;;;;5087873;28;20199;-44
2021/12/29 06:17:52;;;;;;;8.13;7.33;;;9.80;99.90;;;;;;5079383;28;20630;-45
2021/12/29 06:20:18;;;;;;;9.70;7.60;;;9.90;99.90;;;;;;5052825;28;20652;-46
2021/12/29 06:22:45;;;;;;;7.80;7.00;;;9.90;99.90;;;;;;5066725;28;20212;-43
2021/12/29 06:25:13;;;;;;;7.17;6.47;;;9.70;99.90;;;;;;5067653;28;20433;-46
2021/12/29 06:27:39;;;;;;;8.73;7.17;;;9.80;99.90;;;;;;5067322;28;20858;-47
2021/12/29 06:30:08;;;;;;;8.23;6.17;;;9.80;99.90;;;;;;5067458;28;20434;-43
2021/12/29 06:32:33;;;;;;;7.30;6.47;;;9.80;99.90;;;;;;5067295;28;20747;-43
2021/12/29 06:34:59;;;;;;;7.50;6.80;;;9.50;99.90;;;;;;5059264;28;20946;-46
2021/12/29 06:37:25;;;;;;;8.60;6.60;;;9.70;99.90;;;;;;5061556;28;20327;-43
2021/12/29 06:39:51;;;;;;;6.53;5.80;;;9.70;99.90;;;;;;5066672;28;20197;-43
2021/12/29 06:42:17;;;;;;;6.70;5.80;;;9.70;99.90;;;;;;5075626;28;20242;-46
2021/12/29 06:44:46;;;;;;;7.07;5.40;;;9.60;99.90;;;;;;5075199;28;20568;-43
2021/12/29 06:47:13;;;;;;;7.60;5.63;;;9.70;99.90;;;;;;5067502;28;20524;-42
2021/12/29 06:49:39;;;;;;;6.20;5.40;;;9.70;99.90;;;;;;5060699;28;20837;-43
2021/12/29 06:52:05;;;;;;;6.37;5.23;;;9.70;99.90;;;;;;5060845;28;20427;-43
2021/12/29 06:54:33;;;;;;;5.80;5.30;;;9.70;99.90;;;;;;5065274;28;20435;-44
2021/12/29 06:56:59;;;;;;;4.83;4.37;;;9.70;99.90;;;;;;5066663;28;21139;-45
2021/12/29 06:59:25;;;;;;;4.90;4.40;;;9.90;99.90;;;;;;5066950;28;20484;-43
2021/12/29 07:01:51;;;;;;;4.63;4.17;;;9.50;99.90;;;;;;5066818;28;20471;-45
2021/12/29 07:04:17;;;;;;;4.97;4.33;;;9.60;99.90;;;;;;5064678;28;20469;-42
2021/12/29 07:06:43;;;;;;;5.20;4.70;;;9.60;99.90;;;;;;5055420;28;20705;-42
2021/12/29 07:09:09;;;;;;;5.27;4.77;;;9.60;99.90;;;;;;5066567;28;20423;-45
2021/12/29 07:11:36;;;;;;;6.73;5.77;;;9.70;99.90;;;;;;5067242;28;20441;-45
2021/12/29 07:14:07;;;;;;;6.50;5.53;;;9.70;99.90;;;;;;5066367;28;20235;-42
2021/12/29 07:16:33;;;;;;;7.23;6.23;;;9.70;99.90;;;;;;5062024;28;20437;-46
2021/12/29 07:18:59;;;;;;;7.47;6.33;;;9.70;99.90;;;;;;5066686;28;20941;-46
2021/12/29 07:21:25;;;;;;;6.23;5.63;;;9.60;99.90;;;;;;5061921;28;20213;-44
2021/12/29 07:23:53;;;;;;;10.80;7.77;;;9.70;99.90;;;;;;5068600;28;20249;-43
2021/12/29 07:26:20;;;;;;;8.03;7.20;;;9.80;99.90;;;;;;5070574;28;20560;-42
2021/12/29 07:28:45;;;;;;;9.60;8.17;;;9.70;99.90;;;;;;5070638;28;20797;-44
2021/12/29 07:31:11;;;;;;;10.50;7.70;;;9.70;99.90;;;;;;5070423;28;20435;-45
2021/12/29 07:33:37;;;;;;;9.97;8.27;;;9.90;99.90;;;;;;5069757;28;20262;-43
2021/12/29 07:36:03;;;;;;;9.10;7.70;;;9.80;99.90;;;;;;5062573;28;20196;-45
2021/12/29 07:38:28;;;;;;;10.10;8.70;;;9.70;99.90;;;;;;5068238;28;20231;-42
2021/12/29 07:40:54;;;;;;;9.57;8.20;;;9.70;99.90;;;;;;5066618;28;21024;-42
2021/12/29 07:43:20;;;;;;;10.17;8.73;;;9.60;99.90;;;;;;5069229;28;20204;-46
2021/12/29 07:45:46;;;;;;;10.80;9.10;;;9.80;99.90;;;;;;5069516;28;20191;-44
2021/12/29 07:48:12;;;;;;;11.50;9.67;;;9.70;99.90;;;;;;5070368;28;20801;-44
2021/12/29 07:50:38;;;;;;;13.13;10.87;;;9.60;99.90;;;;;;5064401;28;20667;-44
2021/12/29 07:53:04;;;;;;;13.80;11.20;;;9.70;99.90;;;;;;5068956;28;20197;-43
2021/12/29 07:55:31;;;;;;;11.80;9.70;;;9.70;99.90;;;;;;5069643;28;20430;-44
2021/12/29 07:57:57;;;;;;;13.83;11.43;;;9.50;99.90;;;;;;5070039;28;20435;-44
2021/12/29 08:00:24;;;;;;;14.30;11.07;;;9.70;99.90;;;;;;5069988;28;20450;-42
2021/12/29 08:02:53;;;;;;;14.50;11.10;;;9.60;99.90;;;;;;5069516;28;20947;-43
2021/12/29 08:05:19;;;;;;;14.73;11.90;;;9.70;99.90;;;;;;5075421;28;20879;-43
2021/12/29 08:07:46;;;;;;;14.87;12.07;;;9.70;99.90;;;;;;5066424;28;20427;-46
2021/12/29 08:10:12;;;;;;;13.80;11.63;;;9.60;99.90;;;;;;5070290;28;20420;-42
2021/12/29 08:12:38;;;;;;;14.50;12.77;;;9.60;99.90;;;;;;5070618;28;20455;-43
2021/12/29 08:15:05;;;;;;;14.93;12.10;;;9.60;99.90;;;;;;5069610;28;20465;-46
2021/12/29 08:17:32;;;;;;;15.40;13.27;;;9.60;99.90;;;;;;5069305;28;20671;-42
2021/12/29 08:20:02;;;;;;;15.20;12.37;;;9.50;99.90;;;;;;5065445;28;20450;-44
2021/12/29 08:22:28;;;;;;;18.57;14.40;;;9.60;99.90;;;;;;5066647;28;20463;-44
2021/12/29 08:24:54;;;;;;;17.83;14.70;;;9.80;99.90;;;;;;5068352;28;20659;-48
2021/12/29 08:27:20;;;;;;;18.10;14.97;;;9.60;99.90;;;;;;5069109;28;20212;-44
2021/12/29 08:29:46;;;;;;;19.07;15.10;;;9.70;99.90;;;;;;5069038;28;20411;-48
2021/12/29 08:32:12;;;;;;;16.93;12.73;;;9.90;99.90;;;;;;5069892;28;20419;-42
2021/12/29 08:34:38;;;;;;;19.97;13.63;;;9.90;99.90;;;;;;5068606;28;20185;-43
2021/12/29 08:37:03;;;;;;;19.17;15.00;;;9.70;99.90;;;;;;5059761;28;20212;-48
2021/12/29 08:39:29;;;;;;;21.27;15.80;;;9.60;99.90;;;;;;5067616;28;20197;-44
2021/12/29 08:41:55;;;;;;;18.10;14.43;;;9.80;99.90;;;;;;5069162;28;20216;-46
2021/12/29 08:44:21;;;;;;;19.67;16.17;;;9.70;99.90;;;;;;5068813;28;20454;-43
2021/12/29 08:46:47;;;;;;;23.47;15.80;;;9.70;99.90;;;;;;5069126;28;20533;-44
2021/12/29 08:49:14;;;;;;;20.00;16.13;;;9.70;99.90;;;;;;5068877;28;20276;-48
2021/12/29 08:51:40;;;;;;;19.83;15.60;;;9.70;99.90;;;;;;5060064;28;20441;-43
2021/12/29 08:54:06;;;;;;;20.47;15.73;;;9.70;99.90;;;;;;5068040;28;20438;-43
2021/12/29 08:56:32;;;;;;;21.50;16.23;;;9.90;99.90;;;;;;5068983;28;20659;-45
2021/12/29 08:58:58;;;;;;;20.97;16.50;;;9.70;99.90;;;;;;5068723;28;20562;-44
2021/12/29 09:01:25;;;;;;;21.73;16.27;;;9.80;99.90;;;;;;5047721;28;20209;-45
2021/12/29 09:03:52;;;;;;;26.47;18.50;;;9.60;99.90;;;;;;5067140;28;20415;-47
2021/12/29 09:06:18;;;;;;;26.10;19.03;;;9.60;99.90;;;;;;5056828;28;20442;-47
2021/12/29 09:08:45;;;;;;;22.67;18.10;;;9.70;99.90;;;;;;5058739;28;20786;-43
2021/12/29 09:11:12;;;;;;;22.57;16.03;;;9.70;99.90;;;;;;5066169;28;20564;-44
2021/12/29 09:13:38;;;;;;;23.93;17.63;;;9.70;99.90;;;;;;5066399;28;20821;-44
2021/12/29 09:16:05;;;;;;;23.70;18.40;;;9.70;99.90;;;;;;5068594;28;20435;-46
2021/12/29 09:18:32;;;;;;;24.10;17.47;;;9.80;99.90;;;;;;5074113;28;20430;-46
2021/12/29 09:21:06;;;;;;;24.77;18.40;;;9.80;99.90;;;;;;5071563;28;20435;-47
2021/12/29 09:23:33;;;;;;;24.57;17.93;;;9.60;99.90;;;;;;5061227;28;20660;-44
2021/12/29 09:26:00;;;;;;;24.13;18.37;;;9.70;99.90;;;;;;5068610;28;20427;-43
2021/12/29 09:28:26;;;;;;;28.67;19.27;;;9.70;99.90;;;;;;5068462;28;20419;-43
2021/12/29 09:30:52;;;;;;;26.40;18.73;;;9.60;99.90;;;;;;5066453;28;20423;-43
2021/12/29 09:33:21;;;;;;;27.30;19.10;;;9.70;99.90;;;;;;5067984;28;20600;-43
2021/12/29 09:35:51;;;;;;;21.87;17.30;;;10.00;99.90;;;;;;5063003;28;20948;-46
2021/12/29 09:38:19;;;;;;;23.00;17.77;;;9.80;99.90;;;;;;5060315;28;20560;-45
2021/12/29 09:40:47;;;;;;;25.73;17.93;;;9.80;99.90;;;;;;5067167;28;20917;-44
2021/12/29 09:43:15;;;;;;;28.50;21.33;;;9.70;99.90;;;;;;5066356;28;20504;-44
2021/12/29 09:45:44;;;;;;;24.90;18.90;;;9.70;99.90;;;;;;5083349;28;20434;-43
2021/12/29 09:48:11;;;;;;;23.30;19.10;;;9.70;99.90;;;;;;5087024;28;20445;-44
2021/12/29 09:50:37;;;;;;;23.60;17.40;;;9.90;99.90;;;;;;5079430;28;20487;-43
2021/12/29 09:53:03;;;;;;;25.73;19.00;;;9.80;99.90;;;;;;5058706;28;20496;-43
2021/12/29 09:55:29;;;;;;;24.63;19.47;;;9.80;99.90;;;;;;5067745;28;20929;-43
2021/12/29 09:57:58;;;;;;;26.13;17.50;;;9.80;99.90;;;;;;5066172;28;20542;-43
2021/12/29 10:00:34;;;;;;;23.40;16.93;;;10.00;99.90;;;;;;5067847;28;20485;-43
2021/12/29 10:03:02;;;;;;;23.47;17.03;;;9.90;99.90;;;;;;5067425;28;20802;-43
2021/12/29 10:05:30;;;;;;;20.83;16.57;;;9.80;99.90;;;;;;5066384;28;20431;-43
2021/12/29 10:08:03;;;;;;;22.70;16.13;;;9.80;99.90;;;;;;5060060;28;20921;-44
2021/12/29 10:10:30;;;;;;;19.63;16.37;;;9.80;99.90;;;;;;5064395;28;20431;-44
2021/12/29 10:12:57;;;;;;;21.50;16.67;;;9.70;99.90;;;;;;5045651;28;20440;-43
2021/12/29 10:15:31;;;;;;;23.67;15.20;;;9.80;99.90;;;;;;5066127;28;20435;-43
2021/12/29 10:18:28;;;;;;;23.50;15.97;;;9.80;99.90;;;;;;5046501;28;20750;-43
2021/12/29 10:21:15;;;;;;;24.30;15.00;;;10.00;99.90;;;;;;5036223;28;20462;-44
2021/12/29 10:23:47;;;;;;;18.17;13.80;;;9.80;99.90;;;;;;5063882;28;20451;-44
2021/12/29 10:26:14;;;;;;;19.03;13.30;;;9.80;99.90;;;;;;5065723;28;20430;-43
2021/12/29 10:28:43;;;;;;;15.50;12.60;;;9.80;99.90;;;;;;5067201;28;20423;-42
2021/12/29 10:31:15;;;;;;;14.10;12.03;;;9.90;99.90;;;;;;5067219;28;20765;-44
2021/12/29 10:33:45;;;;;;;16.50;12.23;;;9.90;99.90;;;;;;5065682;28;20822;-43
2021/12/29 10:36:16;;;;;;;13.33;11.93;;;10.00;99.90;;;;;;5063577;28;20523;-43
2021/12/29 10:38:49;;;;;;;12.67;10.60;;;9.80;99.90;;;;;;5060723;28;20980;-45
2021/12/29 10:41:14;;;;;;;13.53;11.17;;;9.90;99.90;;;;;;5029190;28;20475;-45
2021/12/29 10:43:53;;;;;;;12.53;11.03;;;9.90;99.90;;;;;;5059675;28;20427;-44
2021/12/29 10:46:23;;;;;;;13.37;10.77;;;9.90;99.90;;;;;;5066090;28;20184;-43
2021/12/29 10:48:52;;;;;;;13.13;11.27;;;10.10;99.90;;;;;;5066079;28;20782;-44
2021/12/29 10:51:24;;;;;;;16.23;12.10;;;10.00;99.90;;;;;;5060270;28;20733;-45
2021/12/29 10:53:50;;;;;;;15.67;10.10;;;10.10;99.90;;;;;;5064669;28;20512;-43
2021/12/29 10:56:23;;;;;;;12.63;10.90;;;9.90;99.90;;;;;;5070804;28;20484;-43
2021/12/29 10:58:53;;;;;;;12.53;11.23;;;9.90;99.90;;;;;;5070054;28;20560;-43
2021/12/29 11:01:20;;;;;;;12.97;9.67;;;9.90;99.90;;;;;;5070909;28;20976;-44
2021/12/29 11:03:52;;;;;;;10.67;9.57;;;10.00;99.90;;;;;;5070555;28;20509;-43
2021/12/29 11:06:26;;;;;;;11.37;9.40;;;10.10;99.90;;;;;;5065203;28;21023;-44
2021/12/29 11:09:01;;;;;;;11.80;8.67;;;9.90;99.90;;;;;;5066452;28;20434;-43
2021/12/29 11:11:41;;;;;;;10.87;9.33;;;10.00;99.90;;;;;;5065290;28;20442;-43
2021/12/29 11:14:15;;;;;;;11.80;9.17;;;10.10;99.90;;;;;;5070507;28;20477;-43
2021/12/29 11:16:42;;;;;;;9.77;8.30;;;10.20;99.90;;;;;;5070770;28;20789;-45
2021/12/29 11:19:08;;;;;;;10.50;7.80;;;10.00;99.90;;;;;;5080384;28;20434;-44
2021/12/29 11:21:38;;;;;;;9.50;8.03;;;10.00;99.90;;;;;;5078892;28;20467;-43
2021/12/29 11:24:30;;;;;;;10.00;8.73;;;10.10;99.90;;;;;;5067413;28;20423;-43
2021/12/29 11:26:58;;;;;;;8.80;7.90;;;10.00;99.90;;;;;;5063620;28;20681;-45
2021/12/29 11:29:25;;;;;;;9.50;8.50;;;10.00;99.90;;;;;;5070385;28;20422;-43
2021/12/29 11:32:07;;;;;;;12.37;8.30;;;10.00;99.90;;;;;;5070436;28;20490;-44
2021/12/29 11:34:33;;;;;;;11.40;8.17;;;10.00;99.90;;;;;;5069884;28;20430;-43
2021/12/29 11:37:10;;;;;;;9.33;8.37;;;10.30;99.90;;;;;;5061936;28;20912;-42
2021/12/29 11:39:39;;;;;;;11.57;9.27;;;10.30;99.90;;;;;;5067297;28;20189;-45
2021/12/29 11:42:06;;;;;;;10.70;8.90;;;10.00;99.90;;;;;;5070134;28;20466;-44
2021/12/29 11:44:32;;;;;;;11.73;9.40;;;10.20;99.90;;;;;;5069926;28;20504;-44
2021/12/29 11:46:58;;;;;;;12.93;9.40;;;10.20;99.90;;;;;;5070725;28;20735;-43
2021/12/29 11:49:24;;;;;;;9.93;8.70;;;10.30;99.90;;;;;;5070247;28;20882;-43
2021/12/29 11:52:17;;;;;;;10.57;9.00;;;10.30;99.90;;;;;;5063626;28;20467;-46
2021/12/29 11:55:02;;;;;;;11.30;9.40;;;10.40;99.90;;;;;;5063911;28;20185;-43
2021/12/29 11:57:30;;;;;;;10.30;8.63;;;10.50;99.90;;;;;;5068332;28;20562;-45
2021/12/29 12:00:13;;;;;;;13.77;8.53;;;10.50;99.90;;;;;;5069959;28;20431;-43
2021/12/29 12:02:40;;;;;;;10.47;8.50;;;10.50;99.90;;;;;;5057661;28;20471;-43
2021/12/29 12:05:17;;;;;;;10.77;8.90;;;10.40;99.90;;;;;;5068630;28;20789;-43
2021/12/29 12:07:43;;;;;;;10.60;8.97;;;10.60;99.90;;;;;;5061402;28;20508;-43
2021/12/29 12:10:23;;;;;;;9.83;8.37;;;10.50;99.90;;;;;;5068217;28;20423;-44
2021/12/29 12:12:52;;;;;;;9.77;8.30;;;10.60;99.90;;;;;;5069312;28;20442;-45
2021/12/29 12:15:29;;;;;;;8.47;7.53;;;10.40;99.90;;;;;;5069611;28;20502;-44
2021/12/29 12:17:55;;;;;;;9.37;7.97;;;10.40;99.90;;;;;;5069746;28;20423;-43
2021/12/29 12:20:21;;;;;;;9.20;6.90;;;10.50;99.90;;;;;;5090091;28;20423;-44
2021/12/29 12:22:52;;;;;;;8.60;7.40;;;10.40;99.90;;;;;;5070659;28;20519;-48
2021/12/29 12:25:25;;;;;;;8.03;7.23;;;10.50;99.90;;;;;;5069269;28;20411;-47
2021/12/29 12:27:51;;;;;;;8.27;6.93;;;10.40;99.90;;;;;;5069311;28;20450;-43
2021/12/29 12:30:23;;;;;;;6.53;5.93;;;10.30;99.90;;;;;;5069758;28;20821;-43
2021/12/29 12:32:57;;;;;;;7.70;7.00;;;10.30;99.90;;;;;;5068934;28;20419;-43
2021/12/29 12:35:30;;;;;;;8.90;6.40;;;10.40;99.90;;;;;;5069979;28;20777;-45
2021/12/29 12:37:56;;;;;;;7.70;5.67;;;10.20;99.90;;;;;;5057366;28;20798;-43
2021/12/29 12:40:26;;;;;;;7.97;6.10;;;10.20;99.90;;;;;;5069251;28;20607;-43
2021/12/29 12:43:01;;;;;;;7.50;6.60;;;10.20;99.90;;;;;;5068659;28;20459;-43
2021/12/29 12:45:32;;;;;;;10.80;7.23;;;10.40;99.90;;;;;;5069421;28;20434;-45
2021/12/29 12:48:03;;;;;;;8.70;6.50;;;10.20;99.90;;;;;;5056790;28;20422;-43
2021/12/29 12:50:29;;;;;;;8.30;7.10;;;10.30;99.90;;;;;;5085011;28;20403;-43
2021/12/29 12:52:56;;;;;;;9.83;6.53;;;10.30;99.90;;;;;;5057384;28;20481;-43
2021/12/29 12:55:24;;;;;;;7.33;6.57;;;10.40;99.90;;;;;;5063652;28;20701;-43